sensor_id;sensor_type;location;lat;lon;timestamp;pressure;altitude;pressure_sealevel;temperature;humidity
23589;BME280;11972;48.078;11.876;2023-05-23T00:03:21;95025.56;;;14.79;100.00
23589;BME280;11972;48.078;11.876;2023-05-23T00:07:21;95028.94;;;14.68;100.00
23589;BME280;11972;48.078;11.876;2023-05-23T00:11:22;95023.38;;;14.51;100.00
23589;BME280;11972;48.078;11.876;2023-05-23T00:15:26;95029.16;;;14.42;100.00
23589;BME280;11972;48.078;11.876;2023-05-23T00:19:26;95026.00;;;14.26;100.00
23589;BME280;11972;48.078;11.876;2023-05-23T00:23:26;95036.72;;;14.20;100.00
23589;BME280;11972;48.078;11.876;2023-05-23T00:27:28;95036.31;;;14.16;100.00
23589;BME280;11972;48.078;11.876;2023-05-23T00:31:29;95037.16;;;14.10;100.00
23589;BME280;11972;48.078;11.876;2023-05-23T00:35:29;95041.50;;;14.04;100.00
23589;BME280;11972;48.078;11.876;2023-05-23T00:39:29;95040.50;;;13.99;100.00
23589;BME280;11972;48.078;11.876;2023-05-23T00:43:30;95051.34;;;13.97;100.00
23589;BME280;11972;48.078;11.876;2023-05-23T00:47:31;95043.00;;;13.94;100.00
23589;BME280;11972;48.078;11.876;2023-05-23T00:51:32;95047.72;;;13.92;100.00
23589;BME280;11972;48.078;11.876;2023-05-23T00:55:32;95051.19;;;13.92;100.00
23589;BME280;11972;48.078;11.876;2023-05-23T00:59:34;95051.56;;;13.96;100.00
23589;BME280;11972;48.078;11.876;2023-05-23T01:03:36;95054.72;;;14.11;100.00
23589;BME280;11972;48.078;11.876;2023-05-23T01:07:36;95045.59;;;14.32;100.00
23589;BME280;11972;48.078;11.876;2023-05-23T01:11:43;95045.66;;;14.50;100.00
23589;BME280;11972;48.078;11.876;2023-05-23T01:16:03;95052.44;;;14.71;100.00
23589;BME280;11972;48.078;11.876;2023-05-23T01:20:10;95047.56;;;14.86;100.00
23589;BME280;11972;48.078;11.876;2023-05-23T01:28:22;95053.50;;;15.07;100.00
23589;BME280;11972;48.078;11.876;2023-05-23T01:32:27;95054.22;;;15.14;100.00
23589;BME280;11972;48.078;11.876;2023-05-23T01:36:28;95054.16;;;15.21;100.00
23589;BME280;11972;48.078;11.876;2023-05-23T01:40:28;95046.63;;;15.36;100.00
23589;BME280;11972;48.078;11.876;2023-05-23T01:44:29;95049.91;;;15.50;100.00
23589;BME280;11972;48.078;11.876;2023-05-23T01:48:30;95052.13;;;15.53;100.00
23589;BME280;11972;48.078;11.876;2023-05-23T01:52:31;95054.19;;;15.51;100.00
23589;BME280;11972;48.078;11.876;2023-05-23T01:56:32;95052.94;;;15.53;100.00
23589;BME280;11972;48.078;11.876;2023-05-23T02:00:33;95057.22;;;15.54;100.00
23589;BME280;11972;48.078;11.876;2023-05-23T02:04:33;95053.38;;;15.50;100.00
23589;BME280;11972;48.078;11.876;2023-05-23T02:08:34;95066.94;;;15.49;100.00
23589;BME280;11972;48.078;11.876;2023-05-23T02:12:34;95057.47;;;15.53;100.00
23589;BME280;11972;48.078;11.876;2023-05-23T02:16:35;95070.09;;;15.57;100.00
23589;BME280;11972;48.078;11.876;2023-05-23T02:20:35;95070.53;;;15.54;100.00
23589;BME280;11972;48.078;11.876;2023-05-23T02:24:35;95074.00;;;15.55;100.00
23589;BME280;11972;48.078;11.876;2023-05-23T02:28:36;95084.97;;;15.65;100.00
23589;BME280;11972;48.078;11.876;2023-05-23T02:32:36;95084.81;;;15.78;100.00
23589;BME280;11972;48.078;11.876;2023-05-23T02:36:36;95089.41;;;15.16;100.00
23589;BME280;11972;48.078;11.876;2023-05-23T02:40:38;95095.38;;;14.68;100.00
23589;BME280;11972;48.078;11.876;2023-05-23T02:44:38;95105.09;;;14.56;100.00
23589;BME280;11972;48.078;11.876;2023-05-23T02:48:39;95105.41;;;14.41;100.00
23589;BME280;11972;48.078;11.876;2023-05-23T02:52:39;95109.81;;;14.22;100.00
23589;BME280;11972;48.078;11.876;2023-05-23T02:56:41;95104.19;;;14.12;100.00
23589;BME280;11972;48.078;11.876;2023-05-23T03:00:42;95106.63;;;14.07;100.00
23589;BME280;11972;48.078;11.876;2023-05-23T03:04:43;95105.00;;;14.06;100.00
23589;BME280;11972;48.078;11.876;2023-05-23T03:08:43;95109.13;;;14.02;100.00
23589;BME280;11972;48.078;11.876;2023-05-23T03:12:43;95099.78;;;13.93;100.00
23589;BME280;11972;48.078;11.876;2023-05-23T03:16:44;95094.13;;;13.82;100.00
23589;BME280;11972;48.078;11.876;2023-05-23T03:20:44;95101.91;;;13.77;100.00
23589;BME280;11972;48.078;11.876;2023-05-23T03:24:44;95107.63;;;13.74;100.00
23589;BME280;11972;48.078;11.876;2023-05-23T03:28:45;95110.09;;;13.69;100.00
23589;BME280;11972;48.078;11.876;2023-05-23T03:32:45;95113.00;;;13.61;100.00
23589;BME280;11972;48.078;11.876;2023-05-23T03:36:46;95120.81;;;13.49;100.00
23589;BME280;11972;48.078;11.876;2023-05-23T03:40:46;95126.78;;;13.38;100.00
23589;BME280;11972;48.078;11.876;2023-05-23T03:44:46;95123.53;;;13.29;100.00
23589;BME280;11972;48.078;11.876;2023-05-23T03:48:46;95128.63;;;13.24;100.00
23589;BME280;11972;48.078;11.876;2023-05-23T03:52:47;95127.00;;;13.23;100.00
23589;BME280;11972;48.078;11.876;2023-05-23T03:56:47;95128.22;;;13.27;100.00
23589;BME280;11972;48.078;11.876;2023-05-23T04:00:47;95129.44;;;13.31;100.00
23589;BME280;11972;48.078;11.876;2023-05-23T04:04:48;95128.63;;;13.37;100.00
23589;BME280;11972;48.078;11.876;2023-05-23T04:08:48;95133.47;;;13.40;100.00
23589;BME280;11972;48.078;11.876;2023-05-23T04:12:49;95134.50;;;13.46;100.00
23589;BME280;11972;48.078;11.876;2023-05-23T04:16:50;95134.47;;;13.53;100.00
23589;BME280;11972;48.078;11.876;2023-05-23T04:20:51;95132.59;;;13.60;100.00
23589;BME280;11972;48.078;11.876;2023-05-23T04:24:51;95141.75;;;13.71;100.00
23589;BME280;11972;48.078;11.876;2023-05-23T04:28:51;95143.72;;;13.82;100.00
23589;BME280;11972;48.078;11.876;2023-05-23T04:32:53;95147.16;;;13.96;100.00
23589;BME280;11972;48.078;11.876;2023-05-23T04:36:53;95146.44;;;14.13;100.00
23589;BME280;11972;48.078;11.876;2023-05-23T04:40:53;95154.47;;;14.38;100.00
23589;BME280;11972;48.078;11.876;2023-05-23T04:44:54;95156.84;;;14.53;100.00
23589;BME280;11972;48.078;11.876;2023-05-23T04:48:57;95163.13;;;14.59;100.00
23589;BME280;11972;48.078;11.876;2023-05-23T04:52:59;95165.09;;;14.70;100.00
23589;BME280;11972;48.078;11.876;2023-05-23T04:56:59;95161.41;;;14.71;100.00
23589;BME280;11972;48.078;11.876;2023-05-23T05:01:00;95160.09;;;14.80;100.00
23589;BME280;11972;48.078;11.876;2023-05-23T05:05:00;95163.69;;;14.93;100.00
23589;BME280;11972;48.078;11.876;2023-05-23T05:09:00;95159.22;;;15.11;100.00
23589;BME280;11972;48.078;11.876;2023-05-23T05:13:01;95154.16;;;15.28;100.00
23589;BME280;11972;48.078;11.876;2023-05-23T05:17:01;95151.53;;;15.22;100.00
23589;BME280;11972;48.078;11.876;2023-05-23T05:21:01;95156.66;;;15.23;100.00
23589;BME280;11972;48.078;11.876;2023-05-23T05:25:02;95160.19;;;15.17;100.00
23589;BME280;11972;48.078;11.876;2023-05-23T05:29:02;95161.66;;;15.13;100.00
23589;BME280;11972;48.078;11.876;2023-05-23T05:33:04;95164.66;;;15.23;100.00
23589;BME280;11972;48.078;11.876;2023-05-23T05:37:04;95168.50;;;15.46;100.00
23589;BME280;11972;48.078;11.876;2023-05-23T05:41:05;95163.81;;;15.66;100.00
23589;BME280;11972;48.078;11.876;2023-05-23T05:45:06;95161.97;;;16.15;100.00
23589;BME280;11972;48.078;11.876;2023-05-23T05:49:06;95149.47;;;16.57;100.00
23589;BME280;11972;48.078;11.876;2023-05-23T05:53:06;95159.53;;;16.85;100.00
23589;BME280;11972;48.078;11.876;2023-05-23T05:57:07;95158.38;;;16.93;100.00
23589;BME280;11972;48.078;11.876;2023-05-23T06:01:08;95148.28;;;17.07;100.00
23589;BME280;11972;48.078;11.876;2023-05-23T06:05:09;95150.41;;;17.28;100.00
23589;BME280;11972;48.078;11.876;2023-05-23T06:09:11;95159.69;;;17.38;100.00
23589;BME280;11972;48.078;11.876;2023-05-23T06:13:11;95166.59;;;17.74;100.00
23589;BME280;11972;48.078;11.876;2023-05-23T06:17:12;95169.59;;;17.89;100.00
23589;BME280;11972;48.078;11.876;2023-05-23T06:21:12;95178.91;;;17.87;100.00
23589;BME280;11972;48.078;11.876;2023-05-23T06:25:12;95168.75;;;18.00;100.00
23589;BME280;11972;48.078;11.876;2023-05-23T06:29:13;95173.41;;;17.93;100.00
23589;BME280;11972;48.078;11.876;2023-05-23T06:33:13;95197.84;;;17.85;100.00
23589;BME280;11972;48.078;11.876;2023-05-23T06:37:13;95174.72;;;17.91;100.00
23589;BME280;11972;48.078;11.876;2023-05-23T06:41:14;95175.84;;;18.35;100.00
23589;BME280;11972;48.078;11.876;2023-05-23T06:45:14;95174.53;;;18.66;100.00
23589;BME280;11972;48.078;11.876;2023-05-23T06:49:15;95174.50;;;18.78;100.00
23589;BME280;11972;48.078;11.876;2023-05-23T06:53:15;95173.88;;;18.59;100.00
23589;BME280;11972;48.078;11.876;2023-05-23T06:57:17;95176.38;;;18.49;100.00
23589;BME280;11972;48.078;11.876;2023-05-23T07:01:18;95175.91;;;18.23;100.00
23589;BME280;11972;48.078;11.876;2023-05-23T07:05:18;95177.91;;;18.16;100.00
23589;BME280;11972;48.078;11.876;2023-05-23T07:09:18;95172.34;;;18.34;100.00
23589;BME280;11972;48.078;11.876;2023-05-23T07:13:19;95184.75;;;18.69;100.00
23589;BME280;11972;48.078;11.876;2023-05-23T07:17:19;95175.09;;;19.14;100.00
23589;BME280;11972;48.078;11.876;2023-05-23T07:21:19;95174.25;;;19.13;100.00
23589;BME280;11972;48.078;11.876;2023-05-23T07:25:20;95165.66;;;19.28;100.00
23589;BME280;11972;48.078;11.876;2023-05-23T07:29:22;95171.88;;;19.67;100.00
23589;BME280;11972;48.078;11.876;2023-05-23T07:33:22;95168.59;;;20.04;100.00
23589;BME280;11972;48.078;11.876;2023-05-23T07:37:23;95172.47;;;20.62;100.00
23589;BME280;11972;48.078;11.876;2023-05-23T07:41:23;95171.66;;;20.62;100.00
23589;BME280;11972;48.078;11.876;2023-05-23T07:45:24;95186.09;;;20.83;100.00
23589;BME280;11972;48.078;11.876;2023-05-23T07:49:24;95180.06;;;20.70;100.00
23589;BME280;11972;48.078;11.876;2023-05-23T07:53:24;95198.41;;;20.78;100.00
23589;BME280;11972;48.078;11.876;2023-05-23T07:57:25;95195.38;;;21.02;100.00
23589;BME280;11972;48.078;11.876;2023-05-23T08:01:26;95199.16;;;21.33;100.00
23589;BME280;11972;48.078;11.876;2023-05-23T08:05:27;95205.13;;;21.13;100.00
23589;BME280;11972;48.078;11.876;2023-05-23T08:09:27;95199.88;;;21.23;100.00
23589;BME280;11972;48.078;11.876;2023-05-23T08:13:28;95191.75;;;21.18;100.00
23589;BME280;11972;48.078;11.876;2023-05-23T08:17:29;95194.59;;;21.34;100.00
23589;BME280;11972;48.078;11.876;2023-05-23T08:21:29;95194.78;;;21.64;100.00
23589;BME280;11972;48.078;11.876;2023-05-23T08:25:31;95203.56;;;21.49;100.00
23589;BME280;11972;48.078;11.876;2023-05-23T08:29:33;95198.66;;;21.09;100.00
23589;BME280;11972;48.078;11.876;2023-05-23T08:33:34;95208.78;;;21.02;100.00
23589;BME280;11972;48.078;11.876;2023-05-23T08:37:34;95208.19;;;21.27;100.00
23589;BME280;11972;48.078;11.876;2023-05-23T08:41:35;95208.69;;;21.56;100.00
23589;BME280;11972;48.078;11.876;2023-05-23T08:45:35;95214.91;;;21.57;100.00
23589;BME280;11972;48.078;11.876;2023-05-23T08:49:37;95209.88;;;21.70;100.00
23589;BME280;11972;48.078;11.876;2023-05-23T08:53:40;95216.81;;;22.09;100.00
23589;BME280;11972;48.078;11.876;2023-05-23T08:57:41;95227.03;;;22.12;100.00
23589;BME280;11972;48.078;11.876;2023-05-23T09:01:46;95217.41;;;22.16;100.00
23589;BME280;11972;48.078;11.876;2023-05-23T09:05:48;95227.38;;;22.15;100.00
23589;BME280;11972;48.078;11.876;2023-05-23T09:09:49;95222.94;;;21.99;100.00
23589;BME280;11972;48.078;11.876;2023-05-23T09:13:49;95221.13;;;21.67;100.00
23589;BME280;11972;48.078;11.876;2023-05-23T09:17:50;95226.59;;;21.77;100.00
23589;BME280;11972;48.078;11.876;2023-05-23T09:21:52;95221.34;;;22.03;100.00
23589;BME280;11972;48.078;11.876;2023-05-23T09:25:53;95224.94;;;22.14;100.00
23589;BME280;11972;48.078;11.876;2023-05-23T09:29:54;95236.81;;;21.80;100.00
23589;BME280;11972;48.078;11.876;2023-05-23T09:33:54;95241.69;;;21.46;100.00
23589;BME280;11972;48.078;11.876;2023-05-23T09:37:56;95240.19;;;21.28;100.00
23589;BME280;11972;48.078;11.876;2023-05-23T09:41:59;95233.59;;;21.41;100.00
23589;BME280;11972;48.078;11.876;2023-05-23T09:46:08;95236.81;;;21.43;100.00
23589;BME280;11972;48.078;11.876;2023-05-23T09:50:11;95232.34;;;21.54;100.00
23589;BME280;11972;48.078;11.876;2023-05-23T09:54:12;95236.97;;;21.64;100.00
23589;BME280;11972;48.078;11.876;2023-05-23T09:58:12;95231.03;;;22.04;100.00
23589;BME280;11972;48.078;11.876;2023-05-23T10:02:15;95245.19;;;22.26;100.00
23589;BME280;11972;48.078;11.876;2023-05-23T10:06:25;95240.81;;;22.20;100.00
23589;BME280;11972;48.078;11.876;2023-05-23T10:10:30;95240.13;;;22.50;100.00
23589;BME280;11972;48.078;11.876;2023-05-23T10:14:36;95231.31;;;22.60;100.00
23589;BME280;11972;48.078;11.876;2023-05-23T10:18:42;95233.03;;;22.97;100.00
23589;BME280;11972;48.078;11.876;2023-05-23T10:22:43;95218.78;;;23.17;100.00
23589;BME280;11972;48.078;11.876;2023-05-23T10:26:43;95228.72;;;23.01;100.00
23589;BME280;11972;48.078;11.876;2023-05-23T10:30:44;95223.63;;;23.05;100.00
23589;BME280;11972;48.078;11.876;2023-05-23T10:34:56;95218.94;;;22.64;100.00
23589;BME280;11972;48.078;11.876;2023-05-23T10:39:08;95218.34;;;22.47;100.00
23589;BME280;11972;48.078;11.876;2023-05-23T10:47:34;95220.69;;;22.23;100.00
23589;BME280;11972;48.078;11.876;2023-05-23T10:51:37;95230.66;;;22.33;100.00
23589;BME280;11972;48.078;11.876;2023-05-23T10:55:38;95232.06;;;22.45;100.00
23589;BME280;11972;48.078;11.876;2023-05-23T10:59:38;95225.41;;;22.05;100.00
23589;BME280;11972;48.078;11.876;2023-05-23T11:07:46;95236.38;;;21.94;100.00
23589;BME280;11972;48.078;11.876;2023-05-23T11:15:50;95221.00;;;21.47;100.00
23589;BME280;11972;48.078;11.876;2023-05-23T11:20:04;95202.53;;;22.03;100.00
23589;BME280;11972;48.078;11.876;2023-05-23T11:24:08;95208.25;;;22.17;100.00
23589;BME280;11972;48.078;11.876;2023-05-23T11:28:10;95215.91;;;22.50;100.00
23589;BME280;11972;48.078;11.876;2023-05-23T11:32:11;95203.06;;;22.68;100.00
23589;BME280;11972;48.078;11.876;2023-05-23T11:36:12;95210.03;;;21.96;100.00
23589;BME280;11972;48.078;11.876;2023-05-23T11:40:30;95211.09;;;21.20;100.00
23589;BME280;11972;48.078;11.876;2023-05-23T11:44:33;95198.66;;;21.09;100.00
23589;BME280;11972;48.078;11.876;2023-05-23T11:48:33;95198.75;;;21.19;100.00
23589;BME280;11972;48.078;11.876;2023-05-23T11:52:34;95205.81;;;21.68;100.00
23589;BME280;11972;48.078;11.876;2023-05-23T11:56:38;95216.50;;;22.05;100.00
23589;BME280;11972;48.078;11.876;2023-05-23T12:00:42;95207.38;;;22.74;100.00
23589;BME280;11972;48.078;11.876;2023-05-23T12:04:43;95201.25;;;23.40;100.00
23589;BME280;11972;48.078;11.876;2023-05-23T12:08:43;95208.75;;;22.87;100.00
23589;BME280;11972;48.078;11.876;2023-05-23T12:12:44;95202.53;;;22.76;100.00
23589;BME280;11972;48.078;11.876;2023-05-23T12:16:45;95213.38;;;23.01;100.00
23589;BME280;11972;48.078;11.876;2023-05-23T12:20:48;95202.34;;;22.93;100.00
23589;BME280;11972;48.078;11.876;2023-05-23T12:24:52;95203.41;;;23.02;100.00
23589;BME280;11972;48.078;11.876;2023-05-23T12:28:56;95207.47;;;23.50;100.00
23589;BME280;11972;48.078;11.876;2023-05-23T12:32:57;95201.25;;;23.65;100.00
23589;BME280;11972;48.078;11.876;2023-05-23T12:36:58;95223.38;;;23.42;100.00
23589;BME280;11972;48.078;11.876;2023-05-23T12:45:09;95197.75;;;22.98;100.00
23589;BME280;11972;48.078;11.876;2023-05-23T12:49:12;95199.44;;;22.26;100.00
23589;BME280;11972;48.078;11.876;2023-05-23T12:53:13;95204.34;;;22.45;100.00
23589;BME280;11972;48.078;11.876;2023-05-23T12:57:13;95190.50;;;23.09;100.00
23589;BME280;11972;48.078;11.876;2023-05-23T13:01:14;95193.31;;;24.15;100.00
23589;BME280;11972;48.078;11.876;2023-05-23T13:05:14;95192.97;;;24.32;100.00
23589;BME280;11972;48.078;11.876;2023-05-23T13:09:14;95203.41;;;23.79;100.00
23589;BME280;11972;48.078;11.876;2023-05-23T13:13:15;95203.69;;;23.31;100.00
23589;BME280;11972;48.078;11.876;2023-05-23T13:17:15;95207.72;;;23.18;100.00
23589;BME280;11972;48.078;11.876;2023-05-23T13:21:16;95207.59;;;22.57;100.00
23589;BME280;11972;48.078;11.876;2023-05-23T13:25:16;95206.69;;;20.50;100.00
23589;BME280;11972;48.078;11.876;2023-05-23T13:29:17;95198.31;;;18.79;100.00
23589;BME280;11972;48.078;11.876;2023-05-23T13:33:17;95198.22;;;18.46;100.00
23589;BME280;11972;48.078;11.876;2023-05-23T13:37:17;95190.81;;;18.76;100.00
23589;BME280;11972;48.078;11.876;2023-05-23T13:41:18;95175.56;;;19.27;100.00
23589;BME280;11972;48.078;11.876;2023-05-23T13:45:19;95174.94;;;19.59;100.00
23589;BME280;11972;48.078;11.876;2023-05-23T13:49:21;95174.25;;;20.29;100.00
23589;BME280;11972;48.078;11.876;2023-05-23T13:53:21;95180.06;;;20.70;100.00
23589;BME280;11972;48.078;11.876;2023-05-23T13:57:22;95181.25;;;20.85;100.00
23589;BME280;11972;48.078;11.876;2023-05-23T14:01:22;95189.53;;;21.10;100.00
23589;BME280;11972;48.078;11.876;2023-05-23T14:05:23;95189.53;;;21.85;100.00
23589;BME280;11972;48.078;11.876;2023-05-23T14:09:23;95193.59;;;22.50;100.00
23589;BME280;11972;48.078;11.876;2023-05-23T14:13:24;95207.91;;;22.03;100.00
23589;BME280;11972;48.078;11.876;2023-05-23T14:17:24;95201.94;;;21.16;100.00
23589;BME280;11972;48.078;11.876;2023-05-23T14:21:25;95205.38;;;20.79;100.00
23589;BME280;11972;48.078;11.876;2023-05-23T14:25:25;95205.50;;;20.19;100.00
23589;BME280;11972;48.078;11.876;2023-05-23T14:29:25;95206.47;;;19.91;100.00
23589;BME280;11972;48.078;11.876;2023-05-23T14:33:25;95219.59;;;19.70;100.00
23589;BME280;11972;48.078;11.876;2023-05-23T14:37:26;95221.06;;;19.44;100.00
23589;BME280;11972;48.078;11.876;2023-05-23T14:41:26;95213.13;;;19.32;100.00
23589;BME280;11972;48.078;11.876;2023-05-23T14:45:27;95216.19;;;19.41;100.00
23589;BME280;11972;48.078;11.876;2023-05-23T14:49:28;95217.50;;;19.39;100.00
23589;BME280;11972;48.078;11.876;2023-05-23T14:53:28;95218.47;;;19.32;100.00
23589;BME280;11972;48.078;11.876;2023-05-23T14:57:28;95220.28;;;20.21;100.00
23589;BME280;11972;48.078;11.876;2023-05-23T15:01:29;95216.88;;;21.34;100.00
23589;BME280;11972;48.078;11.876;2023-05-23T15:05:29;95220.75;;;21.91;100.00
23589;BME280;11972;48.078;11.876;2023-05-23T15:09:30;95221.31;;;22.50;100.00
23589;BME280;11972;48.078;11.876;2023-05-23T15:13:30;95212.03;;;23.09;100.00
23589;BME280;11972;48.078;11.876;2023-05-23T15:17:34;95217.44;;;23.35;100.00
23589;BME280;11972;48.078;11.876;2023-05-23T15:21:35;95227.66;;;23.33;100.00
23589;BME280;11972;48.078;11.876;2023-05-23T15:25:35;95226.78;;;22.86;100.00
23589;BME280;11972;48.078;11.876;2023-05-23T15:29:35;95231.25;;;22.45;100.00
23589;BME280;11972;48.078;11.876;2023-05-23T15:33:38;95233.22;;;22.07;100.00
23589;BME280;11972;48.078;11.876;2023-05-23T15:37:39;95232.94;;;21.61;100.00
23589;BME280;11972;48.078;11.876;2023-05-23T15:41:40;95239.97;;;21.35;100.00
23589;BME280;11972;48.078;11.876;2023-05-23T15:45:40;95242.00;;;20.91;100.00
23589;BME280;11972;48.078;11.876;2023-05-23T15:49:41;95243.72;;;20.53;100.00
23589;BME280;11972;48.078;11.876;2023-05-23T15:53:41;95243.34;;;20.22;100.00
23589;BME280;11972;48.078;11.876;2023-05-23T15:57:41;95236.22;;;20.11;100.00
23589;BME280;11972;48.078;11.876;2023-05-23T16:01:42;95253.53;;;19.81;100.00
23589;BME280;11972;48.078;11.876;2023-05-23T16:05:42;95252.00;;;19.35;100.00
23589;BME280;11972;48.078;11.876;2023-05-23T16:09:42;95251.72;;;19.03;100.00
23589;BME280;11972;48.078;11.876;2023-05-23T16:13:43;95255.00;;;18.76;100.00
23589;BME280;11972;48.078;11.876;2023-05-23T16:17:43;95258.88;;;18.57;100.00
23589;BME280;11972;48.078;11.876;2023-05-23T16:21:43;95259.19;;;18.44;100.00
23589;BME280;11972;48.078;11.876;2023-05-23T16:25:44;95267.69;;;18.29;100.00
23589;BME280;11972;48.078;11.876;2023-05-23T16:29:45;95258.03;;;18.40;100.00
23589;BME280;11972;48.078;11.876;2023-05-23T16:33:45;95260.59;;;18.63;100.00
23589;BME280;11972;48.078;11.876;2023-05-23T16:37:46;95258.84;;;18.80;100.00
23589;BME280;11972;48.078;11.876;2023-05-23T16:41:46;95253.78;;;18.84;100.00
23589;BME280;11972;48.078;11.876;2023-05-23T16:45:46;95248.97;;;18.98;100.00
23589;BME280;11972;48.078;11.876;2023-05-23T16:49:47;95256.69;;;19.11;100.00
23589;BME280;11972;48.078;11.876;2023-05-23T16:53:47;95255.41;;;19.30;100.00
23589;BME280;11972;48.078;11.876;2023-05-23T16:57:48;95258.72;;;19.38;100.00
23589;BME280;11972;48.078;11.876;2023-05-23T17:01:48;95254.00;;;19.11;100.00
23589;BME280;11972;48.078;11.876;2023-05-23T17:05:48;95249.03;;;18.86;100.00
23589;BME280;11972;48.078;11.876;2023-05-23T17:09:49;95262.78;;;18.78;100.00
23589;BME280;11972;48.078;11.876;2023-05-23T17:13:49;95253.16;;;18.65;100.00
23589;BME280;11972;48.078;11.876;2023-05-23T17:17:51;95274.84;;;18.52;100.00
23589;BME280;11972;48.078;11.876;2023-05-23T17:21:52;95261.72;;;18.39;100.00
23589;BME280;11972;48.078;11.876;2023-05-23T17:25:53;95273.38;;;18.32;100.00
23589;BME280;11972;48.078;11.876;2023-05-23T17:29:53;95273.59;;;18.31;100.00
23589;BME280;11972;48.078;11.876;2023-05-23T17:33:53;95276.28;;;18.31;100.00
23589;BME280;11972;48.078;11.876;2023-05-23T17:37:54;95286.31;;;18.24;100.00
23589;BME280;11972;48.078;11.876;2023-05-23T17:41:56;95282.22;;;18.21;100.00
23589;BME280;11972;48.078;11.876;2023-05-23T17:45:57;95284.81;;;18.16;100.00
23589;BME280;11972;48.078;11.876;2023-05-23T17:49:57;95289.69;;;18.07;100.00
23589;BME280;11972;48.078;11.876;2023-05-23T17:53:57;95292.94;;;17.98;100.00
23589;BME280;11972;48.078;11.876;2023-05-23T17:57:58;95304.59;;;17.92;100.00
23589;BME280;11972;48.078;11.876;2023-05-23T18:01:59;95300.66;;;17.82;100.00
23589;BME280;11972;48.078;11.876;2023-05-23T18:05:59;95304.91;;;17.72;100.00
23589;BME280;11972;48.078;11.876;2023-05-23T18:09:59;95305.00;;;17.65;100.00
23589;BME280;11972;48.078;11.876;2023-05-23T18:14:00;95302.22;;;17.60;100.00
23589;BME280;11972;48.078;11.876;2023-05-23T18:18:00;95303.16;;;17.54;100.00
23589;BME280;11972;48.078;11.876;2023-05-23T18:22:00;95304.06;;;17.48;100.00
23589;BME280;11972;48.078;11.876;2023-05-23T18:26:01;95298.50;;;17.38;100.00
23589;BME280;11972;48.078;11.876;2023-05-23T18:30:01;95306.47;;;17.26;100.00
23589;BME280;11972;48.078;11.876;2023-05-23T18:34:02;95310.28;;;17.18;100.00
23589;BME280;11972;48.078;11.876;2023-05-23T18:38:02;95327.22;;;17.12;100.00
23589;BME280;11972;48.078;11.876;2023-05-23T18:42:03;95330.53;;;17.07;100.00
23589;BME280;11972;48.078;11.876;2023-05-23T18:46:03;95334.25;;;17.06;100.00
23589;BME280;11972;48.078;11.876;2023-05-23T18:50:04;95339.22;;;17.03;100.00
23589;BME280;11972;48.078;11.876;2023-05-23T18:54:05;95338.06;;;16.99;100.00
23589;BME280;11972;48.078;11.876;2023-05-23T18:58:06;95345.19;;;16.86;100.00
23589;BME280;11972;48.078;11.876;2023-05-23T19:02:07;95347.38;;;16.78;100.00
23589;BME280;11972;48.078;11.876;2023-05-23T19:06:07;95356.25;;;16.72;100.00
23589;BME280;11972;48.078;11.876;2023-05-23T19:10:08;95359.28;;;16.57;100.00
23589;BME280;11972;48.078;11.876;2023-05-23T19:14:09;95360.94;;;16.40;100.00
23589;BME280;11972;48.078;11.876;2023-05-23T19:18:10;95364.78;;;16.25;100.00
23589;BME280;11972;48.078;11.876;2023-05-23T19:22:17;95376.44;;;16.06;100.00
23589;BME280;11972;48.078;11.876;2023-05-23T19:26:17;95383.56;;;15.87;100.00
23589;BME280;11972;48.078;11.876;2023-05-23T19:30:17;95378.94;;;15.76;100.00
23589;BME280;11972;48.078;11.876;2023-05-23T19:34:18;95383.38;;;15.57;100.00
23589;BME280;11972;48.078;11.876;2023-05-23T19:38:18;95387.78;;;15.45;100.00
23589;BME280;11972;48.078;11.876;2023-05-23T19:42:19;95384.16;;;15.39;100.00
23589;BME280;11972;48.078;11.876;2023-05-23T19:46:19;95395.25;;;15.29;100.00
23589;BME280;11972;48.078;11.876;2023-05-23T19:50:20;95399.19;;;15.20;100.00
23589;BME280;11972;48.078;11.876;2023-05-23T19:54:21;95401.69;;;15.15;100.00
23589;BME280;11972;48.078;11.876;2023-05-23T19:58:23;95400.09;;;15.01;100.00
23589;BME280;11972;48.078;11.876;2023-05-23T20:02:23;95408.19;;;14.81;100.00
23589;BME280;11972;48.078;11.876;2023-05-23T20:06:24;95415.03;;;14.57;100.00
23589;BME280;11972;48.078;11.876;2023-05-23T20:10:24;95417.09;;;14.42;100.00
23589;BME280;11972;48.078;11.876;2023-05-23T20:14:25;95420.81;;;14.21;100.00
23589;BME280;11972;48.078;11.876;2023-05-23T20:18:35;95412.25;;;13.99;100.00
23589;BME280;11972;48.078;11.876;2023-05-23T20:22:36;95410.66;;;13.71;100.00
23589;BME280;11972;48.078;11.876;2023-05-23T20:26:36;95429.81;;;13.47;100.00
23589;BME280;11972;48.078;11.876;2023-05-23T20:30:37;95444.28;;;13.31;100.00
23589;BME280;11972;48.078;11.876;2023-05-23T20:34:37;95441.41;;;13.32;100.00
23589;BME280;11972;48.078;11.876;2023-05-23T20:38:39;95442.22;;;13.33;100.00
23589;BME280;11972;48.078;11.876;2023-05-23T20:42:40;95449.38;;;13.32;100.00
23589;BME280;11972;48.078;11.876;2023-05-23T20:46:44;95449.78;;;13.29;100.00
23589;BME280;11972;48.078;11.876;2023-05-23T20:50:44;95449.38;;;13.32;100.00
23589;BME280;11972;48.078;11.876;2023-05-23T20:54:45;95442.81;;;13.28;100.00
23589;BME280;11972;48.078;11.876;2023-05-23T20:58:47;95435.28;;;13.25;100.00
23589;BME280;11972;48.078;11.876;2023-05-23T21:02:48;95445.00;;;13.11;100.00
23589;BME280;11972;48.078;11.876;2023-05-23T21:06:48;95450.06;;;12.93;100.00